De Xin Hai — BQBP — position and weather

sailwx.info

Track history (hours):
 
Tides and Currents Weather Stations Pressure Air Temp Water Temp Dewpoint Dewpoint Depression Visibility Wind Speed Wind Dir Waves Ship Positions

De Xin Hai

Last reported at 2017-Oct-20 17:16 UTC. Time now 2017-Oct-22 06:48 UTC.
Position N 16°20' W 062°40'.

Length 225 m; draft 6.9 m.

Type: Cargo ship. MMSI: 367344200.

Date/timePositionNaut miles runAvg speedWind from/ knotsBaromVisibWave heightAir tempDewpointWater temp
2017-Oct-20 17:16N 16°20' W 062°40'413.3
2017-Oct-20 17:00N 16°22' W 062°37'713.6
2017-Oct-20 16:30N 16°25' W 062°30'714.0
2017-Oct-20 16:01N 16°27' W 062°23'2113.8
2017-Oct-20 14:28N 16°36' W 062°03'1313.9
2017-Oct-20 13:30N 16°41' W 061°50'714.0
2017-Oct-20 13:00N 16°44' W 061°44'713.7
2017-Oct-20 12:30N 16°47' W 061°37'713.3
2017-Oct-20 12:00N 16°49' W 061°31'713.4
2017-Oct-20 11:31N 16°52' W 061°24'713.5
2017-Oct-20 11:00N 16°54' W 061°17'713.4
2017-Oct-20 10:30N 16°56' W 061°11'713.5
2017-Oct-20 10:00N 16°58' W 061°04'713.3
2017-Oct-20 09:30N 16°60' W 060°57'  
2017-Oct-12 01:46N 31°45' W 016°15'9113.2
2017-Oct-11 18:53N 32°29' W 014°42'26013.0
2017-Oct-10 22:54N 34°33' W 010°08'1213.2
2017-Oct-10 22:00N 34°39' W 009°56'713.3
2017-Oct-10 21:31N 34°42' W 009°49'713.2
2017-Oct-10 21:01N 34°45' W 009°42'713.0
2017-Oct-10 20:30N 34°49' W 009°35'713.1
2017-Oct-10 20:00N 34°52' W 009°28'613.1
2017-Oct-10 19:31N 34°55' W 009°21'713.1
2017-Oct-10 19:00N 34°58' W 009°14'713.3
2017-Oct-10 18:29N 35°01' W 009°06'613.3
2017-Oct-10 18:00N 35°04' W 008°59'713.2
2017-Oct-10 17:30N 35°08' W 008°52'  
Track history (hours):
 
Tides and Currents Weather Stations Pressure Air Temp Water Temp Dewpoint Dewpoint Depression Visibility Wind Speed Wind Dir Waves Ship Positions

De Xin Hai

Last reported at 2017-Oct-20 17:16 UTC. Time now 2017-Oct-22 06:48 UTC.
Position N 16°20' W 062°40'.

Length 225 m; draft 6.9 m.

Type: Cargo ship. MMSI: 367344200.

Date/timePositionNaut miles runAvg speedWind from/ knotsBaromVisibWave heightAir tempDewpointWater temp
2017-Oct-20 17:16N 16°20' W 062°40'413.3
2017-Oct-20 17:00N 16°22' W 062°37'713.6
2017-Oct-20 16:30N 16°25' W 062°30'714.0
2017-Oct-20 16:01N 16°27' W 062°23'2113.8
2017-Oct-20 14:28N 16°36' W 062°03'1313.9
2017-Oct-20 13:30N 16°41' W 061°50'714.0
2017-Oct-20 13:00N 16°44' W 061°44'713.7
2017-Oct-20 12:30N 16°47' W 061°37'713.3
2017-Oct-20 12:00N 16°49' W 061°31'713.4
2017-Oct-20 11:31N 16°52' W 061°24'713.5
2017-Oct-20 11:00N 16°54' W 061°17'713.4
2017-Oct-20 10:30N 16°56' W 061°11'713.5
2017-Oct-20 10:00N 16°58' W 061°04'713.3
2017-Oct-20 09:30N 16°60' W 060°57'  
2017-Oct-12 01:46N 31°45' W 016°15'9113.2
2017-Oct-11 18:53N 32°29' W 014°42'26013.0
2017-Oct-10 22:54N 34°33' W 010°08'1213.2
2017-Oct-10 22:00N 34°39' W 009°56'713.3
2017-Oct-10 21:31N 34°42' W 009°49'713.2
2017-Oct-10 21:01N 34°45' W 009°42'713.0
2017-Oct-10 20:30N 34°49' W 009°35'713.1
2017-Oct-10 20:00N 34°52' W 009°28'613.1
2017-Oct-10 19:31N 34°55' W 009°21'713.1
2017-Oct-10 19:00N 34°58' W 009°14'713.3
2017-Oct-10 18:29N 35°01' W 009°06'613.3
2017-Oct-10 18:00N 35°04' W 008°59'713.2
2017-Oct-10 17:30N 35°08' W 008°52'  

Dump ship's entire track history